Ana Sayfa
METAR-TAF:

METAR-TAF

Havaalanları :

Dyersburg, Tennessee, Amerika Birleşik Devletleri

Enlem: 36-00N, Boylam: 089-24W, yükseklik: 103 m

Güncel hava durumu gözlemi

Rapor saat 17:56 UTC de 1 saat ve 15 dakika önce yapıldı.
Rüzgar değişken yönden 5 kt
Sıcaklık 26°C
Nem 37%
Basınç 1017 hPa
Görüş mesafesi: 16.1 km
Açık gökyüzü

METAR: KDYR 121756Z AUTO VRB05KT 10SM CLR 26/10 A3004 RMK AO2 SLP176 6//// T02610100 10267 20161 58011

Saat: 14:11 (19:11 UTC)


TAF: eksik

4.000'den fazla havaalanı için hava durumu gözlemleri ve tahminleri (METAR ve TAF raporları).

Kullanılabilir istasyonlar harita üzerinde sarı ve kırmızı noktalarla gösterilir.

İstasyonun adını görmek için fareyi noktanın üzerinde gezdirin.

Sonrasında hava gözlem ve tahminlerini görmek için tıklayın.

Haritayı değiştirmek için: yaklaştırmak için siyah artı işaretli yeşil düğmeye ve uzaklaştırmak için de eksi işaretli düğmeye hızla tıklayın; bitişik haritalar için yeşil okları kullanın.


METAR-TAF: